sensor_id;sensor_type;location;lat;lon;timestamp;pressure;altitude;pressure_sealevel;temperature;humidity
33454;BME280;39400;49.744;7.012;2023-02-28T00:02:11;96693.81;;;-2.94;85.72
33454;BME280;39400;49.744;7.012;2023-02-28T00:04:37;96702.69;;;-2.94;85.80
33454;BME280;39400;49.744;7.012;2023-02-28T00:07:02;96693.81;;;-2.94;85.73
33454;BME280;39400;49.744;7.012;2023-02-28T00:09:27;96701.72;;;-3.03;86.90
33454;BME280;39400;49.744;7.012;2023-02-28T00:11:53;96701.13;;;-3.00;86.86
33454;BME280;39400;49.744;7.012;2023-02-28T00:14:18;96705.94;;;-2.97;87.17
33454;BME280;39400;49.744;7.012;2023-02-28T00:16:43;96703.25;;;-2.97;87.15
33454;BME280;39400;49.744;7.012;2023-02-28T00:19:09;96700.63;;;-3.02;88.30
33454;BME280;39400;49.744;7.012;2023-02-28T00:21:34;96701.78;;;-3.08;88.77
33454;BME280;39400;49.744;7.012;2023-02-28T00:23:59;96708.19;;;-3.04;89.11
33454;BME280;39400;49.744;7.012;2023-02-28T00:26:24;96706.56;;;-3.05;89.59
33454;BME280;39400;49.744;7.012;2023-02-28T00:28:51;96703.06;;;-3.05;89.62
33454;BME280;39400;49.744;7.012;2023-02-28T00:31:17;96700.97;;;-3.08;90.32
33454;BME280;39400;49.744;7.012;2023-02-28T00:33:42;96701.47;;;-3.06;91.01
33454;BME280;39400;49.744;7.012;2023-02-28T00:36:09;96692.31;;;-3.05;91.50
33454;BME280;39400;49.744;7.012;2023-02-28T00:38:36;96698.56;;;-3.10;91.76
33454;BME280;39400;49.744;7.012;2023-02-28T00:41:02;96697.56;;;-3.14;92.30
33454;BME280;39400;49.744;7.012;2023-02-28T00:43:27;96694.84;;;-3.14;92.65
33454;BME280;39400;49.744;7.012;2023-02-28T00:45:53;96704.06;;;-3.20;93.25
33454;BME280;39400;49.744;7.012;2023-02-28T00:48:18;96693.31;;;-3.20;93.28
33454;BME280;39400;49.744;7.012;2023-02-28T00:50:43;96701.34;;;-3.15;93.10
33454;BME280;39400;49.744;7.012;2023-02-28T00:53:09;96699.72;;;-3.16;93.11
33454;BME280;39400;49.744;7.012;2023-02-28T00:55:34;96703.53;;;-3.22;93.73
33454;BME280;39400;49.744;7.012;2023-02-28T00:57:59;96706.38;;;-3.32;94.96
33454;BME280;39400;49.744;7.012;2023-02-28T01:00:25;96703.72;;;-3.38;95.19
33454;BME280;39400;49.744;7.012;2023-02-28T01:02:50;96697.72;;;-3.29;95.13
33454;BME280;39400;49.744;7.012;2023-02-28T01:05:15;96697.72;;;-3.29;95.08
33454;BME280;39400;49.744;7.012;2023-02-28T01:07:41;96701.94;;;-3.23;95.43
33454;BME280;39400;49.744;7.012;2023-02-28T01:10:06;96702.84;;;-3.33;96.11
33454;BME280;39400;49.744;7.012;2023-02-28T01:12:32;96704.75;;;-3.33;95.96
33454;BME280;39400;49.744;7.012;2023-02-28T01:14:57;96704.19;;;-3.30;96.31
33454;BME280;39400;49.744;7.012;2023-02-28T01:17:23;96704.25;;;-3.36;96.88
33454;BME280;39400;49.744;7.012;2023-02-28T01:19:48;96699.13;;;-3.37;97.32
33454;BME280;39400;49.744;7.012;2023-02-28T01:22:13;96699.78;;;-3.45;98.20
33454;BME280;39400;49.744;7.012;2023-02-28T01:24:41;96698.91;;;-3.41;97.76
33454;BME280;39400;49.744;7.012;2023-02-28T01:27:06;96703.81;;;-3.48;99.14
33454;BME280;39400;49.744;7.012;2023-02-28T01:29:31;96706.94;;;-3.36;97.76
33454;BME280;39400;49.744;7.012;2023-02-28T01:31:57;96702.13;;;-3.39;98.32
33454;BME280;39400;49.744;7.012;2023-02-28T01:34:22;96693.41;;;-3.54;99.34
33454;BME280;39400;49.744;7.012;2023-02-28T01:36:47;96704.16;;;-3.54;99.52
33454;BME280;39400;49.744;7.012;2023-02-28T01:39:13;96698.22;;;-3.51;99.55
33454;BME280;39400;49.744;7.012;2023-02-28T01:41:39;96697.31;;;-3.42;99.04
33454;BME280;39400;49.744;7.012;2023-02-28T01:47:10;96702.91;;;-3.62;100.00
33454;BME280;39400;49.744;7.012;2023-02-28T01:49:35;96699.41;;;-3.63;100.00
33454;BME280;39400;49.744;7.012;2023-02-28T01:52:01;96697.19;;;-3.55;100.00
33454;BME280;39400;49.744;7.012;2023-02-28T01:54:31;96700.69;;;-3.55;100.00
33454;BME280;39400;49.744;7.012;2023-02-28T01:57:06;96700.59;;;-3.50;100.00
33454;BME280;39400;49.744;7.012;2023-02-28T01:59:36;96696.41;;;-3.56;100.00
33454;BME280;39400;49.744;7.012;2023-02-28T02:02:04;96700.84;;;-3.70;100.00
33454;BME280;39400;49.744;7.012;2023-02-28T02:04:39;96695.47;;;-3.70;100.00
33454;BME280;39400;49.744;7.012;2023-02-28T02:07:08;96694.88;;;-3.67;100.00
33454;BME280;39400;49.744;7.012;2023-02-28T02:09:34;96700.00;;;-3.71;100.00
33454;BME280;39400;49.744;7.012;2023-02-28T02:12:08;96688.53;;;-3.76;100.00
33454;BME280;39400;49.744;7.012;2023-02-28T02:15:03;96691.25;;;-3.82;100.00
33454;BME280;39400;49.744;7.012;2023-02-28T02:17:38;96685.31;;;-3.78;100.00
33454;BME280;39400;49.744;7.012;2023-02-28T02:25:55;96689.09;;;-3.79;100.00
33454;BME280;39400;49.744;7.012;2023-02-28T02:39:11;96667.78;;;-4.00;100.00
33454;BME280;39400;49.744;7.012;2023-02-28T02:41:54;96669.91;;;-3.97;100.00
33454;BME280;39400;49.744;7.012;2023-02-28T02:44:48;96673.22;;;-4.05;100.00
33454;BME280;39400;49.744;7.012;2023-02-28T02:47:19;96670.03;;;-4.12;100.00
33454;BME280;39400;49.744;7.012;2023-02-28T02:49:53;96669.84;;;-4.21;100.00
33454;BME280;39400;49.744;7.012;2023-02-28T02:52:24;96664.72;;;-4.17;100.00
33454;BME280;39400;49.744;7.012;2023-02-28T02:54:54;96669.59;;;-4.24;100.00
33454;BME280;39400;49.744;7.012;2023-02-28T02:57:25;96667.06;;;-4.40;100.00
33454;BME280;39400;49.744;7.012;2023-02-28T02:59:54;96669.75;;;-4.40;100.00
33454;BME280;39400;49.744;7.012;2023-02-28T03:02:22;96668.97;;;-4.45;100.00
33454;BME280;39400;49.744;7.012;2023-02-28T03:04:52;96660.78;;;-4.30;100.00
33454;BME280;39400;49.744;7.012;2023-02-28T03:07:20;96666.47;;;-4.37;100.00
33454;BME280;39400;49.744;7.012;2023-02-28T03:09:51;96668.41;;;-4.42;100.00
33454;BME280;39400;49.744;7.012;2023-02-28T03:12:16;96662.81;;;-4.46;100.00
33454;BME280;39400;49.744;7.012;2023-02-28T03:17:32;96667.47;;;-4.22;100.00
33454;BME280;39400;49.744;7.012;2023-02-28T03:23:01;96658.88;;;-4.24;100.00
33454;BME280;39400;49.744;7.012;2023-02-28T03:25:35;96659.44;;;-4.27;100.00
33454;BME280;39400;49.744;7.012;2023-02-28T03:28:07;96660.84;;;-4.35;100.00
33454;BME280;39400;49.744;7.012;2023-02-28T03:33:17;96660.03;;;-4.36;100.00
33454;BME280;39400;49.744;7.012;2023-02-28T03:35:54;96659.47;;;-4.33;100.00
33454;BME280;39400;49.744;7.012;2023-02-28T03:38:28;96665.34;;;-4.31;100.00
33454;BME280;39400;49.744;7.012;2023-02-28T03:43:39;96656.81;;;-4.33;100.00
33454;BME280;39400;49.744;7.012;2023-02-28T03:46:09;96654.34;;;-4.29;100.00
33454;BME280;39400;49.744;7.012;2023-02-28T03:48:40;96664.41;;;-4.45;100.00
33454;BME280;39400;49.744;7.012;2023-02-28T03:51:09;96666.22;;;-4.40;100.00
33454;BME280;39400;49.744;7.012;2023-02-28T03:53:42;96670.84;;;-4.46;100.00
33454;BME280;39400;49.744;7.012;2023-02-28T03:56:17;96672.56;;;-4.60;100.00
33454;BME280;39400;49.744;7.012;2023-02-28T03:58:56;96673.28;;;-4.49;100.00
33454;BME280;39400;49.744;7.012;2023-02-28T04:01:37;96675.13;;;-4.45;100.00
33454;BME280;39400;49.744;7.012;2023-02-28T04:04:04;96673.13;;;-4.63;100.00
33454;BME280;39400;49.744;7.012;2023-02-28T04:06:32;96674.66;;;-4.52;100.00
33454;BME280;39400;49.744;7.012;2023-02-28T04:08:57;96674.09;;;-4.49;100.00
33454;BME280;39400;49.744;7.012;2023-02-28T04:11:40;96676.25;;;-4.51;100.00
33454;BME280;39400;49.744;7.012;2023-02-28T04:14:08;96677.88;;;-4.55;100.00
33454;BME280;39400;49.744;7.012;2023-02-28T04:16:36;96674.09;;;-4.49;100.00
33454;BME280;39400;49.744;7.012;2023-02-28T04:19:04;96670.63;;;-4.55;100.00
33454;BME280;39400;49.744;7.012;2023-02-28T04:23:58;96667.69;;;-4.53;100.00
33454;BME280;39400;49.744;7.012;2023-02-28T04:26:23;96669.84;;;-4.55;100.00
33454;BME280;39400;49.744;7.012;2023-02-28T04:28:49;96671.72;;;-4.56;100.00
33454;BME280;39400;49.744;7.012;2023-02-28T04:31:14;96672.31;;;-4.64;100.00
33454;BME280;39400;49.744;7.012;2023-02-28T04:33:39;96676.84;;;-4.64;100.00
33454;BME280;39400;49.744;7.012;2023-02-28T04:36:07;96676.84;;;-4.64;100.00
33454;BME280;39400;49.744;7.012;2023-02-28T04:38:35;96673.44;;;-4.70;100.00
33454;BME280;39400;49.744;7.012;2023-02-28T04:41:01;96668.84;;;-4.69;100.00
33454;BME280;39400;49.744;7.012;2023-02-28T04:43:27;96665.31;;;-4.65;100.00
33454;BME280;39400;49.744;7.012;2023-02-28T04:45:54;96666.00;;;-4.83;100.00
33454;BME280;39400;49.744;7.012;2023-02-28T04:48:20;96671.59;;;-4.74;100.00
33454;BME280;39400;49.744;7.012;2023-02-28T04:50:45;96668.13;;;-4.80;100.00
33454;BME280;39400;49.744;7.012;2023-02-28T04:53:10;96670.22;;;-4.72;100.00
33454;BME280;39400;49.744;7.012;2023-02-28T04:55:36;96676.91;;;-4.69;100.00
33454;BME280;39400;49.744;7.012;2023-02-28T04:58:01;96670.63;;;-4.55;100.00
33454;BME280;39400;49.744;7.012;2023-02-28T05:00:27;96670.44;;;-4.68;100.00
33454;BME280;39400;49.744;7.012;2023-02-28T05:02:52;96675.50;;;-4.62;100.00
33454;BME280;39400;49.744;7.012;2023-02-28T05:05:17;96672.00;;;-4.57;100.00
33454;BME280;39400;49.744;7.012;2023-02-28T05:07:43;96683.06;;;-4.64;100.00
33454;BME280;39400;49.744;7.012;2023-02-28T05:10:09;96672.31;;;-4.64;100.00
33454;BME280;39400;49.744;7.012;2023-02-28T05:12:35;96665.78;;;-4.52;100.00
33454;BME280;39400;49.744;7.012;2023-02-28T05:15:00;96668.81;;;-4.64;100.00
33454;BME280;39400;49.744;7.012;2023-02-28T05:17:25;96672.56;;;-4.60;100.00
33454;BME280;39400;49.744;7.012;2023-02-28T05:19:51;96665.56;;;-4.61;100.00
33454;BME280;39400;49.744;7.012;2023-02-28T05:22:16;96671.97;;;-4.52;100.00
33454;BME280;39400;49.744;7.012;2023-02-28T05:24:41;96675.50;;;-4.62;100.00
33454;BME280;39400;49.744;7.012;2023-02-28T05:27:07;96682.75;;;-4.62;100.00
33454;BME280;39400;49.744;7.012;2023-02-28T05:29:33;96687.84;;;-4.61;100.00
33454;BME280;39400;49.744;7.012;2023-02-28T05:31:58;96675.25;;;-4.60;100.00
33454;BME280;39400;49.744;7.012;2023-02-28T05:34:23;96676.31;;;-4.61;100.00
33454;BME280;39400;49.744;7.012;2023-02-28T05:36:49;96674.72;;;-4.62;100.00
33454;BME280;39400;49.744;7.012;2023-02-28T05:39:14;96672.81;;;-4.62;100.00
33454;BME280;39400;49.744;7.012;2023-02-28T05:41:43;96671.31;;;-4.78;100.00
33454;BME280;39400;49.744;7.012;2023-02-28T05:44:09;96681.22;;;-4.73;100.00
33454;BME280;39400;49.744;7.012;2023-02-28T05:46:35;96678.59;;;-4.84;100.00
33454;BME280;39400;49.744;7.012;2023-02-28T05:49:01;96677.75;;;-4.79;100.00
33454;BME280;39400;49.744;7.012;2023-02-28T05:51:26;96679.63;;;-4.74;100.00
33454;BME280;39400;49.744;7.012;2023-02-28T05:53:51;96679.66;;;-4.80;100.00
33454;BME280;39400;49.744;7.012;2023-02-28T05:56:17;96681.78;;;-4.82;100.00
33454;BME280;39400;49.744;7.012;2023-02-28T05:58:42;96682.56;;;-4.76;100.00
33454;BME280;39400;49.744;7.012;2023-02-28T06:04:06;96682.41;;;-4.95;100.00
33454;BME280;39400;49.744;7.012;2023-02-28T06:06:32;96682.66;;;-4.91;100.00
33454;BME280;39400;49.744;7.012;2023-02-28T06:08:57;96685.00;;;-4.80;100.00
33454;BME280;39400;49.744;7.012;2023-02-28T06:11:23;96685.63;;;-4.93;100.00
33454;BME280;39400;49.744;7.012;2023-02-28T06:13:48;96690.44;;;-4.90;100.00
33454;BME280;39400;49.744;7.012;2023-02-28T06:16:13;96688.25;;;-4.83;100.00
33454;BME280;39400;49.744;7.012;2023-02-28T06:18:39;96688.34;;;-4.98;100.00
33454;BME280;39400;49.744;7.012;2023-02-28T06:21:04;96695.28;;;-4.97;100.00
33454;BME280;39400;49.744;7.012;2023-02-28T06:23:30;96697.94;;;-4.92;100.00
33454;BME280;39400;49.744;7.012;2023-02-28T06:25:55;96691.66;;;-4.72;100.00
33454;BME280;39400;49.744;7.012;2023-02-28T06:28:21;96692.56;;;-4.92;100.00
33454;BME280;39400;49.744;7.012;2023-02-28T06:30:46;96692.00;;;-4.84;100.00
33454;BME280;39400;49.744;7.012;2023-02-28T06:33:11;96696.31;;;-4.88;100.00
33454;BME280;39400;49.744;7.012;2023-02-28T06:35:37;96701.66;;;-4.83;100.00
33454;BME280;39400;49.744;7.012;2023-02-28T06:38:02;96700.00;;;-4.73;100.00
33454;BME280;39400;49.744;7.012;2023-02-28T06:40:27;96701.66;;;-4.83;100.00
33454;BME280;39400;49.744;7.012;2023-02-28T06:42:53;96706.47;;;-4.80;100.00
33454;BME280;39400;49.744;7.012;2023-02-28T06:45:18;96708.63;;;-4.82;100.00
33454;BME280;39400;49.744;7.012;2023-02-28T06:47:43;96714.81;;;-4.81;100.00
33454;BME280;39400;49.744;7.012;2023-02-28T06:50:11;96710.72;;;-4.73;100.00
33454;BME280;39400;49.744;7.012;2023-02-28T06:52:37;96708.84;;;-4.78;100.00
33454;BME280;39400;49.744;7.012;2023-02-28T06:55:04;96716.31;;;-4.65;100.00
33454;BME280;39400;49.744;7.012;2023-02-28T06:57:32;96712.81;;;-4.60;100.00
33454;BME280;39400;49.744;7.012;2023-02-28T07:00:03;96712.56;;;-4.69;100.00
33454;BME280;39400;49.744;7.012;2023-02-28T07:02:28;96718.44;;;-4.62;100.00
33454;BME280;39400;49.744;7.012;2023-02-28T07:04:54;96721.84;;;-4.46;100.00
33454;BME280;39400;49.744;7.012;2023-02-28T07:07:19;96710.88;;;-4.49;100.00
33454;BME280;39400;49.744;7.012;2023-02-28T07:09:45;96717.56;;;-4.52;100.00
33454;BME280;39400;49.744;7.012;2023-02-28T07:12:10;96718.88;;;-4.44;100.00
33454;BME280;39400;49.744;7.012;2023-02-28T07:14:36;96728.19;;;-4.37;100.00
33454;BME280;39400;49.744;7.012;2023-02-28T07:17:02;96728.97;;;-4.31;100.00
33454;BME280;39400;49.744;7.012;2023-02-28T07:19:27;96727.22;;;-4.46;100.00
33454;BME280;39400;49.744;7.012;2023-02-28T07:21:53;96728.75;;;-4.35;100.00
33454;BME280;39400;49.744;7.012;2023-02-28T07:24:18;96727.06;;;-4.25;100.00
33454;BME280;39400;49.744;7.012;2023-02-28T07:26:43;96728.31;;;-4.13;100.00
33454;BME280;39400;49.744;7.012;2023-02-28T07:29:09;96730.72;;;-4.11;100.00
33454;BME280;39400;49.744;7.012;2023-02-28T07:31:34;96727.50;;;-4.08;100.00
33454;BME280;39400;49.744;7.012;2023-02-28T07:33:59;96735.16;;;-3.96;100.00
33454;BME280;39400;49.744;7.012;2023-02-28T07:36:25;96744.56;;;-3.94;100.00
33454;BME280;39400;49.744;7.012;2023-02-28T07:38:50;96726.50;;;-3.88;100.00
33454;BME280;39400;49.744;7.012;2023-02-28T07:41:17;96730.19;;;-3.79;100.00
33454;BME280;39400;49.744;7.012;2023-02-28T07:43:43;96724.03;;;-3.79;100.00
33454;BME280;39400;49.744;7.012;2023-02-28T07:46:11;96728.19;;;-3.63;100.00
33454;BME280;39400;49.744;7.012;2023-02-28T07:48:37;96729.22;;;-3.59;100.00
33454;BME280;39400;49.744;7.012;2023-02-28T07:51:03;96727.47;;;-3.74;100.00
33454;BME280;39400;49.744;7.012;2023-02-28T07:53:28;96730.56;;;-3.62;100.00
33454;BME280;39400;49.744;7.012;2023-02-28T07:55:58;96728.66;;;-3.56;100.00
33454;BME280;39400;49.744;7.012;2023-02-28T07:58:23;96725.78;;;-3.41;100.00
33454;BME280;39400;49.744;7.012;2023-02-28T08:00:49;96721.28;;;-3.45;100.00
33454;BME280;39400;49.744;7.012;2023-02-28T08:03:16;96728.44;;;-3.36;100.00
33454;BME280;39400;49.744;7.012;2023-02-28T08:05:41;96727.38;;;-3.40;100.00
33454;BME280;39400;49.744;7.012;2023-02-28T08:08:07;96727.38;;;-3.40;100.00
33454;BME280;39400;49.744;7.012;2023-02-28T08:10:33;96727.75;;;-3.22;100.00
33454;BME280;39400;49.744;7.012;2023-02-28T08:12:58;96726.56;;;-3.11;100.00
33454;BME280;39400;49.744;7.012;2023-02-28T08:15:24;96728.09;;;-3.05;100.00
33454;BME280;39400;49.744;7.012;2023-02-28T08:17:49;96731.31;;;-3.03;100.00
33454;BME280;39400;49.744;7.012;2023-02-28T08:20:14;96725.41;;;-3.05;100.00
33454;BME280;39400;49.744;7.012;2023-02-28T08:22:40;96724.31;;;-3.04;100.00
33454;BME280;39400;49.744;7.012;2023-02-28T08:25:06;96723.31;;;-3.08;100.00
33454;BME280;39400;49.744;7.012;2023-02-28T08:27:31;96724.31;;;-3.04;100.00
33454;BME280;39400;49.744;7.012;2023-02-28T08:29:56;96722.97;;;-2.82;100.00
33454;BME280;39400;49.744;7.012;2023-02-28T08:32:22;96726.13;;;-2.75;100.00
33454;BME280;39400;49.744;7.012;2023-02-28T08:34:47;96720.03;;;-2.62;100.00
33454;BME280;39400;49.744;7.012;2023-02-28T08:37:12;96711.38;;;-2.59;100.00
33454;BME280;39400;49.744;7.012;2023-02-28T08:39:38;96711.16;;;-2.44;100.00
33454;BME280;39400;49.744;7.012;2023-02-28T08:42:04;96701.47;;;-2.26;100.00
33454;BME280;39400;49.744;7.012;2023-02-28T08:44:29;96721.72;;;-2.28;100.00
33454;BME280;39400;49.744;7.012;2023-02-28T08:46:54;96717.41;;;-2.29;100.00
33454;BME280;39400;49.744;7.012;2023-02-28T08:49:20;96716.81;;;-2.26;100.00
33454;BME280;39400;49.744;7.012;2023-02-28T08:51:45;96718.69;;;-2.08;100.00
33454;BME280;39400;49.744;7.012;2023-02-28T08:54:10;96716.16;;;-1.99;100.00
33454;BME280;39400;49.744;7.012;2023-02-28T08:56:36;96720.47;;;-1.84;100.00
33454;BME280;39400;49.744;7.012;2023-02-28T08:59:01;96718.72;;;-1.75;100.00
33454;BME280;39400;49.744;7.012;2023-02-28T09:01:28;96728.88;;;-1.86;100.00
33454;BME280;39400;49.744;7.012;2023-02-28T09:03:54;96714.44;;;-1.76;100.00
33454;BME280;39400;49.744;7.012;2023-02-28T09:06:21;96720.41;;;-1.79;100.00
33454;BME280;39400;49.744;7.012;2023-02-28T09:08:47;96720.91;;;-1.45;100.00
33454;BME280;39400;49.744;7.012;2023-02-28T09:11:13;96719.25;;;-1.73;100.00
33454;BME280;39400;49.744;7.012;2023-02-28T09:13:39;96706.91;;;-1.47;100.00
33454;BME280;39400;49.744;7.012;2023-02-28T09:21:29;96721.13;;;-1.27;100.00
33454;BME280;39400;49.744;7.012;2023-02-28T09:23:54;96710.34;;;-1.13;100.00
33454;BME280;39400;49.744;7.012;2023-02-28T09:26:25;96711.72;;;-1.16;100.00
33454;BME280;39400;49.744;7.012;2023-02-28T09:28:51;96710.72;;;-1.20;100.00
33454;BME280;39400;49.744;7.012;2023-02-28T09:31:23;96710.16;;;-1.03;100.00
33454;BME280;39400;49.744;7.012;2023-02-28T09:33:50;96717.31;;;-0.85;100.00
33454;BME280;39400;49.744;7.012;2023-02-28T09:36:16;96716.72;;;-0.68;100.00
33454;BME280;39400;49.744;7.012;2023-02-28T09:38:42;96706.28;;;-0.61;100.00
33454;BME280;39400;49.744;7.012;2023-02-28T09:41:16;96710.28;;;-0.44;100.00
33454;BME280;39400;49.744;7.012;2023-02-28T09:43:46;96715.09;;;-0.19;97.68
33454;BME280;39400;49.744;7.012;2023-02-28T09:46:36;96710.56;;;-0.10;96.76
33454;BME280;39400;49.744;7.012;2023-02-28T09:49:08;96704.69;;;0.11;94.97
33454;BME280;39400;49.744;7.012;2023-02-28T09:51:41;96707.81;;;-0.32;92.69
33454;BME280;39400;49.744;7.012;2023-02-28T09:54:15;96702.44;;;-0.32;93.19
33454;BME280;39400;49.744;7.012;2023-02-28T09:56:41;96708.28;;;-0.53;92.56
33454;BME280;39400;49.744;7.012;2023-02-28T10:04:49;96708.44;;;-0.35;91.68
33454;BME280;39400;49.744;7.012;2023-02-28T10:10:33;96709.84;;;-0.02;88.55
33454;BME280;39400;49.744;7.012;2023-02-28T10:13:02;96709.09;;;0.07;88.96
33454;BME280;39400;49.744;7.012;2023-02-28T10:15:31;96711.97;;;0.10;88.87
33454;BME280;39400;49.744;7.012;2023-02-28T10:18:02;96717.88;;;0.12;88.16
33454;BME280;39400;49.744;7.012;2023-02-28T10:20:32;96725.13;;;0.03;86.98
33454;BME280;39400;49.744;7.012;2023-02-28T10:25:29;96717.16;;;-0.02;88.22
33454;BME280;39400;49.744;7.012;2023-02-28T10:28:01;96730.47;;;-0.06;85.61
33454;BME280;39400;49.744;7.012;2023-02-28T10:30:30;96709.22;;;0.02;86.19
33454;BME280;39400;49.744;7.012;2023-02-28T10:32:56;96729.91;;;0.06;85.83
33454;BME280;39400;49.744;7.012;2023-02-28T10:35:26;96720.78;;;0.38;84.84
33454;BME280;39400;49.744;7.012;2023-02-28T10:37:59;96718.06;;;0.38;83.72
33454;BME280;39400;49.744;7.012;2023-02-28T10:40:34;96714.22;;;0.62;84.86
33454;BME280;39400;49.744;7.012;2023-02-28T10:43:19;96721.53;;;0.61;82.12
33454;BME280;39400;49.744;7.012;2023-02-28T10:45:55;96703.81;;;0.86;83.78
33454;BME280;39400;49.744;7.012;2023-02-28T10:59:01;96704.06;;;1.90;78.69
33454;BME280;39400;49.744;7.012;2023-02-28T11:03:55;96708.25;;;1.31;75.19
33454;BME280;39400;49.744;7.012;2023-02-28T11:06:23;96702.84;;;0.82;75.43
33454;BME280;39400;49.744;7.012;2023-02-28T11:08:55;96695.19;;;1.24;76.02
33454;BME280;39400;49.744;7.012;2023-02-28T11:11:22;96697.19;;;1.01;76.46
33454;BME280;39400;49.744;7.012;2023-02-28T11:13:52;96700.75;;;0.79;76.88
33454;BME280;39400;49.744;7.012;2023-02-28T11:16:18;96703.38;;;0.62;76.23
33454;BME280;39400;49.744;7.012;2023-02-28T11:18:52;96704.59;;;0.78;77.34
33454;BME280;39400;49.744;7.012;2023-02-28T11:21:25;96700.63;;;0.84;76.85
33454;BME280;39400;49.744;7.012;2023-02-28T11:23:57;96696.03;;;0.93;77.01
33454;BME280;39400;49.744;7.012;2023-02-28T11:26:46;96687.16;;;1.02;77.08
33454;BME280;39400;49.744;7.012;2023-02-28T11:29:16;96693.09;;;0.73;75.47
33454;BME280;39400;49.744;7.012;2023-02-28T11:31:42;96696.13;;;0.71;76.12
33454;BME280;39400;49.744;7.012;2023-02-28T11:34:26;96688.22;;;0.83;77.92
33454;BME280;39400;49.744;7.012;2023-02-28T11:36:54;96687.16;;;1.02;77.92
33454;BME280;39400;49.744;7.012;2023-02-28T11:39:20;96696.38;;;1.58;78.42
33454;BME280;39400;49.744;7.012;2023-02-28T11:42:20;96692.56;;;1.94;76.63
33454;BME280;39400;49.744;7.012;2023-02-28T11:50:26;96682.00;;;2.18;72.89
33454;BME280;39400;49.744;7.012;2023-02-28T11:52:57;96684.72;;;2.01;70.65
33454;BME280;39400;49.744;7.012;2023-02-28T11:55:39;96682.81;;;2.10;70.85
33454;BME280;39400;49.744;7.012;2023-02-28T11:58:23;96692.34;;;2.42;71.28
33454;BME280;39400;49.744;7.012;2023-02-28T12:04:01;96695.53;;;2.44;71.44
33454;BME280;39400;49.744;7.012;2023-02-28T12:06:51;96682.56;;;2.58;70.79
33454;BME280;39400;49.744;7.012;2023-02-28T12:09:44;96687.13;;;2.84;71.64
33454;BME280;39400;49.744;7.012;2023-02-28T12:12:38;96675.16;;;2.76;69.01
33454;BME280;39400;49.744;7.012;2023-02-28T12:15:05;96680.25;;;2.40;68.25
33454;BME280;39400;49.744;7.012;2023-02-28T12:26:02;96693.66;;;2.36;68.11
33454;BME280;39400;49.744;7.012;2023-02-28T12:28:43;96692.84;;;2.35;67.48
33454;BME280;39400;49.744;7.012;2023-02-28T12:31:20;96684.50;;;2.58;67.36
33454;BME280;39400;49.744;7.012;2023-02-28T12:33:51;96691.50;;;2.59;68.39
33454;BME280;39400;49.744;7.012;2023-02-28T12:36:19;96691.22;;;2.52;66.88
33454;BME280;39400;49.744;7.012;2023-02-28T12:38:48;96694.31;;;1.89;66.42
33454;BME280;39400;49.744;7.012;2023-02-28T12:41:17;96677.25;;;1.63;67.02
33454;BME280;39400;49.744;7.012;2023-02-28T12:43:47;96686.94;;;1.55;67.44
33454;BME280;39400;49.744;7.012;2023-02-28T12:46:35;96688.44;;;1.70;68.20
33454;BME280;39400;49.744;7.012;2023-02-28T12:49:27;96683.50;;;2.71;70.46
33454;BME280;39400;49.744;7.012;2023-02-28T12:51:55;96679.88;;;2.97;67.29
33454;BME280;39400;49.744;7.012;2023-02-28T12:57:09;96674.66;;;3.21;66.03
33454;BME280;39400;49.744;7.012;2023-02-28T12:59:49;96678.50;;;2.82;64.89
33454;BME280;39400;49.744;7.012;2023-02-28T13:05:33;96678.91;;;2.54;65.81
33454;BME280;39400;49.744;7.012;2023-02-28T13:10:59;96681.44;;;2.68;65.54
33454;BME280;39400;49.744;7.012;2023-02-28T13:13:27;96681.53;;;2.80;65.57
33454;BME280;39400;49.744;7.012;2023-02-28T13:16:09;96685.09;;;3.10;64.39
33454;BME280;39400;49.744;7.012;2023-02-28T13:18:38;96688.78;;;2.68;64.18
33454;BME280;39400;49.744;7.012;2023-02-28T13:21:06;96686.09;;;2.97;63.80
33454;BME280;39400;49.744;7.012;2023-02-28T13:26:17;96685.69;;;3.46;62.76
33454;BME280;39400;49.744;7.012;2023-02-28T13:31:15;96676.59;;;3.71;63.06
33454;BME280;39400;49.744;7.012;2023-02-28T13:38:52;96672.19;;;4.00;62.33
33454;BME280;39400;49.744;7.012;2023-02-28T13:44:09;96682.53;;;4.27;60.58
33454;BME280;39400;49.744;7.012;2023-02-28T13:54:38;96690.53;;;4.57;59.44
33454;BME280;39400;49.744;7.012;2023-02-28T13:57:23;96685.72;;;4.29;59.37
33454;BME280;39400;49.744;7.012;2023-02-28T14:05:18;96670.19;;;4.88;58.50
33454;BME280;39400;49.744;7.012;2023-02-28T14:07:49;96669.22;;;4.59;57.82
33454;BME280;39400;49.744;7.012;2023-02-28T14:10:26;96667.91;;;5.02;57.45
33454;BME280;39400;49.744;7.012;2023-02-28T14:15:41;96664.88;;;5.28;58.06
33454;BME280;39400;49.744;7.012;2023-02-28T14:18:18;96669.81;;;6.43;54.55
33454;BME280;39400;49.744;7.012;2023-02-28T14:20:46;96661.97;;;8.85;50.16
33454;BME280;39400;49.744;7.012;2023-02-28T14:31:18;96667.50;;;14.58;36.10
33454;BME280;39400;49.744;7.012;2023-02-28T14:34:17;96660.88;;;14.16;34.92
33454;BME280;39400;49.744;7.012;2023-02-28T14:36:45;96656.38;;;14.65;34.03
33454;BME280;39400;49.744;7.012;2023-02-28T14:39:15;96669.00;;;14.73;34.54
33454;BME280;39400;49.744;7.012;2023-02-28T14:41:42;96678.00;;;15.48;33.36
33454;BME280;39400;49.744;7.012;2023-02-28T14:44:20;96672.03;;;13.66;34.35
33454;BME280;39400;49.744;7.012;2023-02-28T14:46:52;96669.66;;;13.90;33.96
33454;BME280;39400;49.744;7.012;2023-02-28T14:49:30;96676.41;;;12.16;34.81
33454;BME280;39400;49.744;7.012;2023-02-28T14:54:38;96663.16;;;14.43;32.29
33454;BME280;39400;49.744;7.012;2023-02-28T14:57:04;96666.09;;;13.78;32.07
33454;BME280;39400;49.744;7.012;2023-02-28T14:59:33;96657.22;;;14.41;32.17
33454;BME280;39400;49.744;7.012;2023-02-28T15:04:59;96663.69;;;13.91;32.42
33454;BME280;39400;49.744;7.012;2023-02-28T15:07:25;96662.84;;;14.19;31.79
33454;BME280;39400;49.744;7.012;2023-02-28T15:10:27;96652.19;;;15.02;30.44
33454;BME280;39400;49.744;7.012;2023-02-28T15:12:55;96659.28;;;15.10;31.01
33454;BME280;39400;49.744;7.012;2023-02-28T15:15:21;96664.09;;;16.37;29.79
33454;BME280;39400;49.744;7.012;2023-02-28T15:17:50;96662.03;;;15.69;30.12
33454;BME280;39400;49.744;7.012;2023-02-28T15:20:17;96655.69;;;15.69;30.31
33454;BME280;39400;49.744;7.012;2023-02-28T15:22:45;96652.41;;;16.53;29.57